Main page
METAR-TAF:

METAR-TAF

Airports :

Almería Airport

Almería, Spain

latitude: 36-51N, longitude: 002-23W, elevation: 15 m

Current weather observation

The report was made 30 minutes ago, at 17:30 UTC
Wind 12 kt from the Southwest
Temperature 14°C
Humidity 72%
Pressure 1023 hPa
Visibility 10 km or more
no clouds below 1500 m and no cumulonimbus

METAR: LEAM 271730Z 22012KT CAVOK 14/09 Q1023

Time: 19:00 (18:00 UTC)

Forecast

The report was made 4 hours and 0 minutes ago, at 14:00 UTC
Forecast valid from 27 at 15 UTC to 28 at 15 UTC
Wind 8 kt from the Southwest
Visibility 10 km or more
no clouds below 1500 m and no cumulonimbus
Becoming
from 27 at 20 UTC to 27 at 23 UTC
Wind 10 kt from the North/Northwest
Becoming
from 28 at 09 UTC to 28 at 12 UTC
Wind 5 kt from the South

TAF: LEAM 271400Z 2715/2815 22008KT CAVOK TX17/2813Z TN09/2806Z BECMG 2720/2723 34010KT BECMG 2809/2812 18005KT

Weather observations and forecasts of more than 4000 airports (METAR and TAF reports).

The available stations are represented by yellow and red dots on the map.

Hover mouse over dot to see the name of the station.

Then click to see weather observations and forecasts.

To change the map : click on the green buttons with a black cross to zoom in, on the green button with a dash to zoom out, or on the green arrows for adjacent maps.


METAR-TAF: